createdAt,value
2019-01-23T00:00:46.055Z,21.3
2019-01-23T00:01:35.565Z,20.9
2019-01-23T00:02:25.314Z,20.4
2019-01-23T00:03:15.663Z,19.6
2019-01-23T00:04:05.150Z,19.1
2019-01-23T00:04:55.978Z,18.5
2019-01-23T00:05:46.100Z,17.8
2019-01-23T00:06:35.052Z,17.3
2019-01-23T00:07:25.987Z,17.3
2019-01-23T00:08:16.000Z,17.4
2019-01-23T00:09:05.772Z,18
2019-01-23T00:09:56.682Z,18.6
2019-01-23T00:10:46.730Z,19.1
2019-01-23T00:11:35.422Z,19.5
2019-01-23T00:12:26.880Z,19.8
2019-01-23T00:13:16.869Z,20.1
2019-01-23T00:14:06.709Z,20.3
2019-01-23T00:14:56.467Z,20.6
2019-01-23T00:15:46.532Z,20.8
2019-01-23T00:16:36.009Z,20.9
2019-01-23T00:17:25.782Z,21.1
2019-01-23T00:18:30.227Z,21.2
2019-01-23T00:19:05.954Z,21.3
2019-01-23T00:19:56.507Z,21.4
2019-01-23T00:20:46.884Z,21.5
2019-01-23T00:21:37.451Z,21.6
2019-01-23T00:22:27.269Z,21.7
2019-01-23T00:23:16.737Z,21.8
2019-01-23T00:24:07.059Z,21.8
2019-01-23T00:24:56.859Z,21.2
2019-01-23T00:25:48.096Z,20.7
2019-01-23T00:26:35.859Z,20.3
2019-01-23T00:27:27.484Z,20
2019-01-23T00:28:17.698Z,19.8
2019-01-23T00:29:06.894Z,19.6
2019-01-23T00:29:57.742Z,19.4
2019-01-23T00:30:48.343Z,19.3
2019-01-23T00:31:37.596Z,19.1
2019-01-23T00:32:27.371Z,19
2019-01-23T00:33:17.418Z,18.9
2019-01-23T00:34:07.216Z,18.8
2019-01-23T00:34:57.548Z,18.8
2019-01-23T00:35:47.945Z,18.6
2019-01-23T00:36:37.992Z,18.4
2019-01-23T00:37:28.313Z,18.8
2019-01-23T00:38:19.766Z,19.2
2019-01-23T00:39:08.421Z,19.6
2019-01-23T00:40:12.846Z,19.9
2019-01-23T00:40:48.553Z,20.2
2019-01-23T00:41:38.028Z,20.4
2019-01-23T00:42:28.400Z,20.6
2019-01-23T00:43:18.131Z,20.7
2019-01-23T00:44:09.355Z,20.9
2019-01-23T00:44:58.520Z,21.1
2019-01-23T00:45:48.615Z,21.2
2019-01-23T00:46:36.709Z,21.3
2019-01-23T00:47:28.976Z,21.4
2019-01-23T00:48:19.323Z,21.5
2019-01-23T00:49:08.592Z,21.6
2019-01-23T00:49:58.845Z,21.6
2019-01-23T00:50:49.332Z,21.8
2019-01-23T00:51:38.722Z,21.8
2019-01-23T00:52:29.847Z,21.3
2019-01-23T00:53:19.102Z,20.8
2019-01-23T00:54:08.882Z,20.4
2019-01-23T00:54:59.182Z,20.1
2019-01-23T00:55:48.498Z,19.8
2019-01-23T00:56:39.334Z,19.6
2019-01-23T00:57:29.089Z,19.4
2019-01-23T00:58:19.695Z,19.3
2019-01-23T00:59:09.205Z,19.1
2019-01-23T00:59:59.826Z,19.1
2019-01-23T01:00:49.914Z,18.9
2019-01-23T01:01:39.432Z,18.9
2019-01-23T01:02:29.807Z,18.8
2019-01-23T01:03:20.334Z,18.6
2019-01-23T01:04:10.635Z,18.4
2019-01-23T01:04:59.336Z,18.6
2019-01-23T01:05:49.409Z,19.1
2019-01-23T01:06:39.507Z,19.4
2019-01-23T01:07:30.346Z,19.8
2019-01-23T01:08:20.136Z,20.1
2019-01-23T01:09:10.189Z,20.3
2019-01-23T01:09:59.129Z,20.4
2019-01-23T01:10:50.125Z,20.7
2019-01-23T01:11:40.682Z,20.8
2019-01-23T01:12:30.194Z,20.9
2019-01-23T01:14:10.593Z,21.3
2019-01-23T01:15:50.683Z,21.4
2019-01-23T01:16:40.743Z,21.5
2019-01-23T01:17:30.268Z,21.6
2019-01-23T01:18:19.823Z,21.7
2019-01-23T01:19:10.926Z,21.8
2019-01-23T01:20:00.940Z,21.6
2019-01-23T01:20:51.045Z,21
2019-01-23T01:21:40.165Z,20.6
2019-01-23T01:22:30.623Z,20.2
2019-01-23T01:23:21.513Z,19.9
2019-01-23T01:24:10.173Z,19.7
2019-01-23T01:25:01.087Z,19.5
2019-01-23T01:25:51.680Z,19.3
2019-01-23T01:26:41.466Z,19.2
2019-01-23T01:27:30.643Z,19.1
2019-01-23T01:28:21.315Z,19
2019-01-23T01:29:11.067Z,18.9
2019-01-23T01:30:00.472Z,18.8
2019-01-23T01:31:41.822Z,18.5
2019-01-23T01:32:31.342Z,18.4
2019-01-23T01:33:20.330Z,18.9
2019-01-23T01:34:11.704Z,19.3
2019-01-23T01:35:01.488Z,19.7
2019-01-23T01:35:50.976Z,19.9
2019-01-23T01:36:41.967Z,20.2
2019-01-23T01:37:32.242Z,20.4
2019-01-23T01:38:21.134Z,20.6
2019-01-23T01:39:11.501Z,20.8
2019-01-23T01:40:01.699Z,20.9
2019-01-23T01:40:52.144Z,21.1
2019-01-23T01:42:31.166Z,21.3
2019-01-23T01:43:22.322Z,21.4
2019-01-23T01:44:12.373Z,21.5
2019-01-23T01:45:01.947Z,21.6
2019-01-23T01:45:51.981Z,21.7
2019-01-23T01:46:41.439Z,21.8
2019-01-23T01:47:33.149Z,21.7
2019-01-23T01:48:22.406Z,21.2
2019-01-23T01:49:12.468Z,20.7
2019-01-23T01:50:02.599Z,20.3
2019-01-23T01:50:52.585Z,20
2019-01-23T01:51:43.243Z,19.8
2019-01-23T01:52:32.126Z,19.6
2019-01-23T01:53:22.501Z,19.4
2019-01-23T01:54:12.528Z,19.3
2019-01-23T01:55:02.559Z,19.1
2019-01-23T01:55:53.201Z,19
2019-01-23T01:56:43.521Z,18.9
2019-01-23T01:57:33.028Z,18.9
2019-01-23T01:58:23.268Z,18.8
2019-01-23T01:59:12.910Z,18.6
2019-01-23T02:00:03.568Z,18.4
2019-01-23T02:00:53.462Z,18.6
2019-01-23T02:01:44.068Z,19.1
2019-01-23T02:02:34.455Z,19.4
2019-01-23T02:03:24.418Z,19.8
2019-01-23T02:04:14.752Z,20
2019-01-23T02:05:04.850Z,20.3
2019-01-23T02:05:54.365Z,20.4
2019-01-23T02:06:44.152Z,20.6
2019-01-23T02:07:34.492Z,20.3
2019-01-23T02:08:23.725Z,19.7
2019-01-23T02:09:14.365Z,19
2019-01-23T02:10:04.725Z,18.6
2019-01-23T02:10:54.720Z,18
2019-01-23T02:11:45.100Z,17.3
2019-01-23T02:12:34.240Z,16.8
2019-01-23T02:13:24.877Z,16.8
2019-01-23T02:14:14.929Z,17.1
2019-01-23T02:15:04.182Z,17.8
2019-01-23T02:15:55.080Z,18.3
2019-01-23T02:16:44.581Z,18.8
2019-01-23T02:17:35.452Z,19.3
2019-01-23T02:18:24.942Z,19.6
2019-01-23T02:19:14.433Z,19.9
2019-01-23T02:20:05.109Z,20.2
2019-01-23T02:20:55.661Z,20.4
2019-01-23T02:21:46.028Z,20.6
2019-01-23T02:22:35.224Z,20.8
2019-01-23T02:23:26.109Z,20.9
2019-01-23T02:24:14.048Z,21.1
2019-01-23T02:25:04.566Z,21.2
2019-01-23T02:25:56.011Z,21.3
2019-01-23T02:26:45.272Z,21.4
2019-01-23T02:27:35.283Z,21.5
2019-01-23T02:28:25.383Z,21.6
2019-01-23T02:29:18.296Z,21.7
2019-01-23T02:30:05.681Z,21.8
2019-01-23T02:30:55.576Z,21.8
2019-01-23T02:31:45.950Z,21.2
2019-01-23T02:32:35.169Z,20.8
2019-01-23T02:33:26.607Z,20.3
2019-01-23T02:34:15.036Z,20
2019-01-23T02:35:04.948Z,19.8
2019-01-23T02:35:56.288Z,19.6
2019-01-23T02:36:46.325Z,19.4
2019-01-23T02:37:35.315Z,19.3
2019-01-23T02:38:26.689Z,19.1
2019-01-23T02:39:15.650Z,19
2019-01-23T02:40:06.575Z,18.9
2019-01-23T02:40:55.221Z,18.8
2019-01-23T02:41:46.130Z,18.8
2019-01-23T02:42:36.717Z,18.6
2019-01-23T02:43:26.212Z,18.5
2019-01-23T02:44:15.820Z,18.9
2019-01-23T02:45:06.674Z,19.4
2019-01-23T02:45:56.163Z,19.7
2019-01-23T02:46:46.719Z,20
2019-01-23T02:47:35.956Z,20.3
2019-01-23T02:48:27.332Z,20.4
2019-01-23T02:49:17.500Z,20.6
2019-01-23T02:50:07.042Z,20.8
2019-01-23T02:50:56.509Z,20.9
2019-01-23T02:51:47.285Z,21.1
2019-01-23T02:52:37.758Z,21.2
2019-01-23T02:53:27.189Z,21.3
2019-01-23T02:54:17.494Z,21.4
2019-01-23T02:55:07.224Z,21.4
2019-01-23T02:55:57.083Z,21.6
2019-01-23T02:56:46.367Z,21.6
2019-01-23T02:57:37.479Z,21.8
2019-01-23T02:58:27.249Z,21.6
2019-01-23T02:59:24.646Z,21
2019-01-23T03:00:07.101Z,20.5
2019-01-23T03:00:58.219Z,20.3
2019-01-23T03:01:46.706Z,19.9
2019-01-23T03:02:37.579Z,19.7
2019-01-23T03:03:28.121Z,19.5
2019-01-23T03:04:17.891Z,19.3
2019-01-23T03:05:07.156Z,19.2
2019-01-23T03:08:41.584Z,18.8
2019-01-23T03:09:30.931Z,18.6
2019-01-23T03:10:21.409Z,18.5
2019-01-23T03:11:11.306Z,18.6
2019-01-23T03:12:01.328Z,19
2019-01-23T03:12:51.754Z,19.4
2019-01-23T03:13:41.697Z,19.8
2019-01-23T03:14:31.503Z,20
2019-01-23T03:15:21.091Z,20.3
2019-01-23T03:16:11.698Z,20.4
2019-01-23T03:17:01.123Z,20.6
2019-01-23T03:17:51.261Z,20.8
2019-01-23T03:18:41.815Z,20.9
2019-01-23T03:19:31.603Z,21.1
2019-01-23T03:21:12.249Z,21.3
2019-01-23T03:22:01.743Z,21.4
2019-01-23T03:22:52.361Z,21.4
2019-01-23T03:23:42.155Z,21.5
2019-01-23T03:24:31.922Z,21.6
2019-01-23T03:25:22.744Z,21.7
2019-01-23T03:26:11.970Z,21.6
2019-01-23T03:27:02.553Z,21.1
2019-01-23T03:27:53.252Z,20.6
2019-01-23T03:28:42.953Z,20.3
2019-01-23T03:29:33.942Z,19.9
2019-01-23T03:30:23.625Z,19.7
2019-01-23T03:31:13.468Z,19.5
2019-01-23T03:32:03.735Z,19.3
2019-01-23T03:32:54.033Z,19.1
2019-01-23T03:33:42.783Z,19.1
2019-01-23T03:34:33.647Z,18.9
2019-01-23T03:35:23.181Z,18.9
2019-01-23T03:36:13.215Z,18.8
2019-01-23T03:37:53.342Z,18.5
2019-01-23T03:38:43.380Z,18.4
2019-01-23T03:39:33.386Z,18.9
2019-01-23T03:40:23.554Z,19.3
2019-01-23T03:41:13.537Z,19.6
2019-01-23T03:42:04.118Z,19.9
2019-01-23T03:42:53.971Z,20.1
2019-01-23T03:43:44.024Z,20.3
2019-01-23T03:44:34.415Z,20.5
2019-01-23T03:45:23.956Z,20.7
2019-01-23T03:46:14.199Z,20.8
2019-01-23T03:47:03.951Z,20.9
2019-01-23T03:47:53.726Z,21
2019-01-23T03:49:34.396Z,21.3
2019-01-23T03:50:24.767Z,21.3
2019-01-23T03:51:14.497Z,21.4
2019-01-23T03:52:04.616Z,21.4
2019-01-23T03:52:54.973Z,21.5
2019-01-23T03:53:44.686Z,20.9
2019-01-23T03:54:34.751Z,20.3
2019-01-23T03:55:24.834Z,19.6
2019-01-23T03:56:14.868Z,19
2019-01-23T03:57:04.869Z,18.4
2019-01-23T03:57:54.964Z,17.8
2019-01-23T03:58:44.755Z,17.2
2019-01-23T03:59:41.204Z,17.2
2019-01-23T04:00:26.771Z,17.3
2019-01-23T04:01:15.540Z,17.9
2019-01-23T04:02:05.545Z,18.4
2019-01-23T04:02:55.175Z,19
2019-01-23T04:03:44.520Z,19.4
2019-01-23T04:04:34.875Z,19.8
2019-01-23T04:05:25.327Z,20.1
2019-01-23T04:06:15.780Z,20.3
2019-01-23T04:07:05.052Z,20.5
2019-01-23T04:07:55.110Z,20.7
2019-01-23T04:08:45.962Z,20.9
2019-01-23T04:09:35.756Z,21.1
2019-01-23T04:10:25.592Z,21.2
2019-01-23T04:11:15.564Z,21.3
2019-01-23T04:12:06.161Z,21.4
2019-01-23T04:12:55.487Z,21.5
2019-01-23T04:13:46.094Z,21.6
2019-01-23T04:14:35.526Z,21.7
2019-01-23T04:15:25.884Z,21.8
2019-01-23T04:16:15.887Z,21.3
2019-01-23T04:17:06.247Z,20.8
2019-01-23T04:17:56.055Z,20.4
2019-01-23T04:18:46.138Z,20.1
2019-01-23T04:19:36.445Z,19.8
2019-01-23T04:20:25.451Z,19.6
2019-01-23T04:21:15.963Z,19.4
2019-01-23T04:22:06.680Z,19.3
2019-01-23T04:22:56.679Z,19.1
2019-01-23T04:23:47.008Z,19
2019-01-23T04:24:37.059Z,18.9
2019-01-23T04:25:27.028Z,18.9
2019-01-23T04:27:06.413Z,18.6
2019-01-23T04:27:56.456Z,18.4
2019-01-23T04:29:44.433Z,19.1
2019-01-23T04:30:26.473Z,19.6
2019-01-23T04:31:18.119Z,19.8
2019-01-23T04:32:07.001Z,20.1
2019-01-23T04:32:57.230Z,20.3
2019-01-23T04:33:47.754Z,20.4
2019-01-23T04:34:36.623Z,20.6
2019-01-23T04:35:27.307Z,20.8
2019-01-23T04:36:17.272Z,20.9
2019-01-23T04:37:07.993Z,21.1
2019-01-23T04:38:47.770Z,21.3
2019-01-23T04:39:37.826Z,21.3
2019-01-23T04:40:27.923Z,21.4
2019-01-23T04:41:17.625Z,21.5
2019-01-23T04:42:08.321Z,21.6
2019-01-23T04:42:57.785Z,21.6
2019-01-23T04:43:48.378Z,21.6
2019-01-23T04:44:38.122Z,21
2019-01-23T04:45:27.922Z,20.6
2019-01-23T04:46:17.987Z,20.2
2019-01-23T04:47:08.300Z,19.9
2019-01-23T04:47:58.407Z,19.6
2019-01-23T04:48:48.429Z,19.4
2019-01-23T04:49:40.265Z,19.3
2019-01-23T04:50:28.821Z,19.1
2019-01-23T04:51:18.297Z,19
2019-01-23T04:52:08.704Z,18.9
2019-01-23T04:52:58.710Z,18.8
2019-01-23T04:53:48.492Z,18.8
2019-01-23T04:54:38.808Z,18.6
2019-01-23T04:55:28.150Z,18.4
2019-01-23T04:56:18.652Z,18.4
2019-01-23T04:57:08.542Z,18.9
2019-01-23T04:57:58.830Z,19.3
2019-01-23T04:58:48.579Z,19.6
2019-01-23T04:59:38.933Z,19.8
2019-01-23T05:00:28.978Z,20.1
2019-01-23T05:01:19.804Z,20.3
2019-01-23T05:02:09.732Z,20.4
2019-01-23T05:03:00.067Z,20.6
2019-01-23T05:03:49.199Z,20.7
2019-01-23T05:04:39.219Z,20.8
2019-01-23T05:05:29.587Z,20.9
2019-01-23T05:06:19.669Z,21
2019-01-23T05:07:09.951Z,21.1
2019-01-23T05:07:59.235Z,21.2
2019-01-23T05:08:49.821Z,21.3
2019-01-23T05:09:39.554Z,21.3
2019-01-23T05:10:29.389Z,21.4
2019-01-23T05:11:19.431Z,21.4
2019-01-23T05:12:09.510Z,21.5
2019-01-23T05:12:59.842Z,21.6
2019-01-23T05:13:50.123Z,21.3
2019-01-23T05:14:40.899Z,20.8
2019-01-23T05:15:29.963Z,20.3
2019-01-23T05:16:20.578Z,20.1
2019-01-23T05:17:10.093Z,19.8
2019-01-23T05:18:00.774Z,19.6
2019-01-23T05:18:50.235Z,19.4
2019-01-23T05:19:40.521Z,19.2
2019-01-23T05:20:30.948Z,19.1
2019-01-23T05:21:22.278Z,18.9
2019-01-23T05:22:10.970Z,18.8
2019-01-23T05:23:00.763Z,18.8
2019-01-23T05:24:40.967Z,18.6
2019-01-23T05:25:31.281Z,18.4
2019-01-23T05:26:20.706Z,18.4
2019-01-23T05:27:11.363Z,18.8
2019-01-23T05:28:01.100Z,19.2
2019-01-23T05:28:51.444Z,19.5
2019-01-23T05:29:41.491Z,19.7
2019-01-23T05:30:31.037Z,19.9
2019-01-23T05:31:21.085Z,20.1
2019-01-23T05:32:12.080Z,20.3
2019-01-23T05:33:01.785Z,20.4
2019-01-23T05:33:51.495Z,20.5
2019-01-23T05:34:41.941Z,20.6
2019-01-23T05:35:31.440Z,20.8
2019-01-23T05:36:21.953Z,20.8
2019-01-23T05:37:11.715Z,20.9
2019-01-23T05:38:01.227Z,20.9
2019-01-23T05:38:51.010Z,21
2019-01-23T05:39:41.610Z,21.1
2019-01-23T05:40:32.242Z,20.8
2019-01-23T05:41:21.492Z,20.3
2019-01-23T05:42:10.849Z,19.5
2019-01-23T05:43:01.158Z,19
2019-01-23T05:43:51.514Z,18.4
2019-01-23T05:44:40.804Z,17.9
2019-01-23T05:45:31.122Z,17.3
2019-01-23T05:46:21.094Z,16.8
2019-01-23T05:47:11.159Z,16.8
2019-01-23T05:48:02.224Z,16.9
2019-01-23T05:48:51.824Z,17.6
2019-01-23T05:49:41.637Z,18.2
2019-01-23T05:51:21.724Z,19.1
2019-01-23T05:52:10.921Z,19.5
2019-01-23T05:53:01.812Z,19.8
2019-01-23T05:53:51.887Z,20
2019-01-23T05:54:40.909Z,20.3
2019-01-23T05:55:31.535Z,20.4
2019-01-23T05:56:21.316Z,20.6
2019-01-23T05:57:12.588Z,20.8
2019-01-23T05:58:02.485Z,20.9
2019-01-23T05:58:51.994Z,21
2019-01-23T06:00:32.318Z,21.2
2019-01-23T06:01:21.841Z,21.3
2019-01-23T06:02:12.713Z,21.4
2019-01-23T06:03:01.768Z,21.5
2019-01-23T06:03:51.799Z,21.6
2019-01-23T06:06:39.738Z,21.3
2019-01-23T06:07:28.913Z,20.7
2019-01-23T06:08:20.452Z,20.3
2019-01-23T06:09:09.863Z,19.9
2019-01-23T06:10:00.968Z,19.7
2019-01-23T06:10:51.198Z,19.5
2019-01-23T06:11:40.965Z,19.3
2019-01-23T06:12:31.377Z,19.1
2019-01-23T06:13:20.722Z,19
2019-01-23T06:14:11.292Z,18.9
2019-01-23T06:15:01.312Z,18.8
2019-01-23T06:15:51.368Z,18.8
2019-01-23T06:16:41.132Z,18.6
2019-01-23T06:17:31.112Z,18.4
2019-01-23T06:18:21.719Z,18.3
2019-01-23T06:19:12.069Z,18.6
2019-01-23T06:20:02.162Z,19.1
2019-01-23T06:20:52.209Z,19.4
2019-01-23T06:21:41.980Z,19.7
2019-01-23T06:22:32.051Z,19.9
2019-01-23T06:23:21.247Z,20.1
2019-01-23T06:24:12.165Z,20.3
2019-01-23T06:25:01.968Z,20.5
2019-01-23T06:25:51.594Z,20.6
2019-01-23T06:26:42.062Z,20.8
2019-01-23T06:27:32.147Z,20.8
2019-01-23T06:28:22.701Z,20.9
2019-01-23T06:29:11.366Z,21.1
2019-01-23T06:30:52.051Z,21.3
2019-01-23T06:31:43.617Z,21.3
2019-01-23T06:32:31.907Z,21.4
2019-01-23T06:33:23.244Z,21.4
2019-01-23T06:34:13.071Z,21.5
2019-01-23T06:35:03.351Z,21.6
2019-01-23T06:35:53.386Z,21.5
2019-01-23T06:36:42.926Z,20.9
2019-01-23T06:37:33.308Z,20.6
2019-01-23T06:38:23.358Z,20.2
2019-01-23T06:39:12.851Z,19.9
2019-01-23T06:40:03.184Z,19.6
2019-01-23T06:40:52.691Z,19.4
2019-01-23T06:41:43.761Z,19.3
2019-01-23T06:42:33.551Z,19.1
2019-01-23T06:43:25.070Z,18.9
2019-01-23T06:44:13.448Z,18.9
2019-01-23T06:45:03.851Z,18.8
2019-01-23T06:46:43.178Z,18.6
2019-01-23T06:47:33.205Z,18.4
2019-01-23T06:48:22.981Z,18.4
2019-01-23T06:49:14.058Z,18.9
2019-01-23T06:50:06.099Z,19.3
2019-01-23T06:50:53.436Z,19.6
2019-01-23T06:51:44.781Z,19.8
2019-01-23T06:52:32.985Z,20
2019-01-23T06:53:24.378Z,20.2
2019-01-23T06:54:13.617Z,20.3
2019-01-23T06:55:03.980Z,20.5
2019-01-23T06:55:55.034Z,20.6
2019-01-23T06:56:44.617Z,20.8
2019-01-23T06:57:34.375Z,20.8
2019-01-23T06:58:24.636Z,20.9
2019-01-23T06:59:15.252Z,21
2019-01-23T07:00:54.594Z,21.2
2019-01-23T07:01:44.655Z,21.3
2019-01-23T07:02:35.186Z,21.3
2019-01-23T07:03:24.572Z,21.4
2019-01-23T07:04:14.729Z,21.4
2019-01-23T07:06:41.619Z,20.9
2019-01-23T07:07:31.462Z,20.4
2019-01-23T07:08:20.727Z,20.1
2019-01-23T07:09:11.559Z,19.8
2019-01-23T07:10:01.449Z,19.6
2019-01-23T07:10:51.161Z,19.4
2019-01-23T07:11:40.939Z,19.2
2019-01-23T07:12:31.764Z,19
2019-01-23T07:13:21.324Z,18.9
2019-01-23T07:14:11.603Z,18.8
2019-01-23T07:15:52.011Z,18.6
2019-01-23T07:16:42.306Z,18.5
2019-01-23T07:17:32.091Z,18.4
2019-01-23T07:18:21.873Z,18.4
2019-01-23T07:19:11.746Z,18.8
2019-01-23T07:20:01.684Z,19.2
2019-01-23T07:20:51.830Z,19.5
2019-01-23T07:21:41.886Z,19.8
2019-01-23T07:22:31.123Z,19.9
2019-01-23T07:23:22.008Z,20.1
2019-01-23T07:24:12.051Z,20.3
2019-01-23T07:25:02.128Z,20.4
2019-01-23T07:25:52.515Z,20.6
2019-01-23T07:26:41.430Z,20.6
2019-01-23T07:27:32.967Z,20.4
2019-01-23T07:28:22.563Z,19.9
2019-01-23T07:29:12.880Z,19.3
2019-01-23T07:30:02.760Z,18.8
2019-01-23T07:30:51.746Z,18.3
2019-01-23T07:31:42.623Z,17.8
2019-01-23T07:32:32.437Z,17.1
2019-01-23T07:33:22.725Z,16.6
2019-01-23T07:34:13.058Z,16.6
2019-01-23T07:35:03.220Z,16.7
2019-01-23T07:35:53.181Z,17.3
2019-01-23T07:36:42.991Z,17.9
2019-01-23T07:37:33.247Z,18.4
2019-01-23T07:38:23.032Z,18.9
2019-01-23T07:39:13.077Z,19.3
2019-01-23T07:40:03.635Z,19.7
2019-01-23T07:40:53.414Z,19.9
2019-01-23T07:41:44.012Z,20.1
2019-01-23T07:42:33.809Z,20.4
2019-01-23T07:43:23.842Z,20.6
2019-01-23T07:44:12.849Z,20.7
2019-01-23T07:45:03.485Z,20.8
2019-01-23T07:45:53.265Z,21
2019-01-23T07:47:33.306Z,21.2
2019-01-23T07:48:25.499Z,21.3
2019-01-23T07:49:14.556Z,21.4
2019-01-23T07:50:04.314Z,21.5
2019-01-23T07:50:53.861Z,21.6
2019-01-23T07:51:44.729Z,21.7
2019-01-23T07:52:34.211Z,21.6
2019-01-23T07:53:24.242Z,21
2019-01-23T07:54:14.852Z,20.6
2019-01-23T07:55:05.034Z,20.2
2019-01-23T07:55:54.698Z,19.9
2019-01-23T07:56:45.071Z,19.7
2019-01-23T07:57:34.554Z,19.4
2019-01-23T07:58:24.918Z,19.3
2019-01-23T07:59:16.157Z,19.1
2019-01-23T08:00:04.818Z,19
2019-01-23T08:00:54.556Z,18.9
2019-01-23T08:01:44.823Z,18.8
2019-01-23T08:03:24.505Z,18.6
2019-01-23T08:04:14.215Z,18.4
2019-01-23T08:05:04.641Z,18.6
2019-01-23T08:05:54.625Z,19
2019-01-23T08:06:44.930Z,19.4
2019-01-23T08:07:35.483Z,19.7
2019-01-23T08:08:25.045Z,19.9
2019-01-23T08:09:15.340Z,20.2
2019-01-23T08:10:05.568Z,20.4
2019-01-23T08:10:54.430Z,20.6
2019-01-23T08:11:45.487Z,20.8
2019-01-23T08:12:35.832Z,20.9
2019-01-23T08:13:27.078Z,21
2019-01-23T08:15:06.273Z,21.3
2019-01-23T08:15:55.491Z,21.4
2019-01-23T08:16:46.255Z,21.4
2019-01-23T08:17:41.579Z,21.5
2019-01-23T08:18:25.945Z,21.6
2019-01-23T08:19:16.550Z,21.7
2019-01-23T08:20:07.905Z,21.6
2019-01-23T08:20:56.687Z,20.9
2019-01-23T08:21:46.730Z,20.4
2019-01-23T08:22:36.207Z,19.9
2019-01-23T08:23:26.837Z,19.6
2019-01-23T08:24:16.634Z,19.3
2019-01-23T08:25:08.519Z,19
2019-01-23T08:25:57.071Z,18.8
2019-01-23T08:26:46.531Z,18.6
2019-01-23T08:27:37.129Z,18.5
2019-01-23T08:28:26.895Z,18.4
2019-01-23T08:29:17.231Z,18.4
2019-01-23T08:30:06.734Z,18.4
2019-01-23T08:30:57.061Z,18.3
2019-01-23T08:31:47.228Z,18.1
2019-01-23T08:32:37.491Z,18.3
2019-01-23T08:33:27.548Z,18.9
2019-01-23T08:34:17.094Z,19.3
2019-01-23T08:35:07.686Z,19.6
2019-01-23T08:35:56.895Z,19.9
2019-01-23T08:36:47.499Z,20.1
2019-01-23T08:37:37.836Z,20.3
2019-01-23T08:38:27.579Z,20.5
2019-01-23T08:39:17.391Z,20.7
2019-01-23T08:40:08.087Z,20.9
2019-01-23T08:40:57.468Z,21
2019-01-23T08:42:37.646Z,21.3
2019-01-23T08:43:27.503Z,21.4
2019-01-23T08:44:17.983Z,21.5
2019-01-23T08:45:07.929Z,21.6
2019-01-23T08:45:57.830Z,21.6
2019-01-23T08:46:47.406Z,21.6
2019-01-23T08:47:37.363Z,21
2019-01-23T08:48:27.808Z,20.6
2019-01-23T08:49:17.773Z,20.2
2019-01-23T08:50:07.913Z,19.9
2019-01-23T08:50:58.717Z,19.8
2019-01-23T08:51:48.763Z,19.5
2019-01-23T08:52:38.359Z,19.3
2019-01-23T08:53:27.828Z,19.2
2019-01-23T08:54:18.942Z,19.1
2019-01-23T08:55:07.478Z,18.9
2019-01-23T08:56:02.107Z,18.9
2019-01-23T08:56:48.336Z,18.9
2019-01-23T08:57:38.688Z,18.8
2019-01-23T08:58:28.475Z,18.5
2019-01-23T08:59:18.522Z,18.4
2019-01-23T09:00:08.682Z,18.8
2019-01-23T09:00:58.624Z,19.3
2019-01-23T09:01:49.032Z,19.6
2019-01-23T09:02:38.735Z,19.9
2019-01-23T09:03:28.602Z,20.1
2019-01-23T09:04:18.592Z,20.1
2019-01-23T09:05:09.154Z,20.2
2019-01-23T09:05:58.599Z,20.4
2019-01-23T09:06:48.802Z,20.7
2019-01-23T09:07:39.297Z,20.8
2019-01-23T09:08:29.149Z,21
2019-01-23T09:09:19.471Z,21.2
2019-01-23T09:10:09.462Z,21.3
2019-01-23T09:10:59.262Z,21.4
2019-01-23T09:11:49.679Z,21.6
2019-01-23T09:12:38.882Z,21.7
2019-01-23T09:13:29.719Z,21.5
2019-01-23T09:14:20.039Z,21
2019-01-23T09:15:09.311Z,20.6
2019-01-23T09:15:59.941Z,20.2
2019-01-23T09:16:49.576Z,19.9
2019-01-23T09:17:39.498Z,19.6
2019-01-23T09:18:29.601Z,19.5
2019-01-23T09:19:19.611Z,19.3
2019-01-23T09:20:09.888Z,19.2
2019-01-23T09:20:59.776Z,19
2019-01-23T09:21:49.866Z,18.9
2019-01-23T09:22:40.498Z,18.8
2019-01-23T09:24:21.043Z,18.6
2019-01-23T09:25:11.048Z,18.5
2019-01-23T09:26:00.816Z,18.9
2019-01-23T09:26:50.879Z,19.4
2019-01-23T09:27:39.990Z,19.8
2019-01-23T09:28:30.991Z,20.1
2019-01-23T09:29:20.783Z,20.4
2019-01-23T09:30:10.912Z,20.6
2019-01-23T09:31:02.771Z,20.8
2019-01-23T09:31:50.998Z,20.9
2019-01-23T09:33:30.853Z,21.3
2019-01-23T09:34:20.917Z,21.4
2019-01-23T09:35:10.765Z,21.5
2019-01-23T09:36:01.017Z,21.6
2019-01-23T09:36:51.585Z,21.8
2019-01-23T09:37:41.135Z,21.8
2019-01-23T09:38:31.227Z,21.4
2019-01-23T09:39:21.247Z,20.8
2019-01-23T09:40:11.568Z,20.4
2019-01-23T09:41:01.601Z,20.1
2019-01-23T09:41:51.458Z,19.8
2019-01-23T09:42:41.982Z,19.6
2019-01-23T09:43:31.291Z,19.4
2019-01-23T09:44:21.877Z,19.3
2019-01-23T09:45:11.415Z,19.1
2019-01-23T09:46:01.992Z,19
2019-01-23T09:46:51.581Z,18.9
2019-01-23T09:47:41.344Z,18.9
2019-01-23T09:49:21.941Z,18.6
2019-01-23T09:50:12.276Z,18.8
2019-01-23T09:51:02.331Z,19.3
2019-01-23T09:51:52.421Z,19.8
2019-01-23T09:52:42.149Z,20.1
2019-01-23T09:53:32.680Z,20.4
2019-01-23T09:54:22.286Z,20.6
2019-01-23T09:55:12.321Z,20.8
2019-01-23T09:56:02.408Z,21
2019-01-23T09:57:42.878Z,21.3
2019-01-23T09:58:33.338Z,21.4
2019-01-23T09:59:22.202Z,21.6
2019-01-23T10:00:13.003Z,21.7
2019-01-23T10:01:12.085Z,21.8
2019-01-23T10:01:53.065Z,21.8
2019-01-23T10:02:42.875Z,21.3
2019-01-23T10:03:33.173Z,20.8
2019-01-23T10:04:22.452Z,20.4
2019-01-23T10:05:12.541Z,20.1
2019-01-23T10:07:40.387Z,19.5
2019-01-23T10:08:30.358Z,19.3
2019-01-23T10:09:20.470Z,19.2
2019-01-23T10:10:10.815Z,19.1
2019-01-23T10:11:01.388Z,19
2019-01-23T10:11:50.610Z,18.9
2019-01-23T10:13:31.286Z,18.6
2019-01-23T10:14:20.852Z,18.8
2019-01-23T10:15:11.112Z,19.3
2019-01-23T10:16:01.202Z,19.8
2019-01-23T10:16:52.062Z,20.1
2019-01-23T10:17:42.712Z,20.4
2019-01-23T10:18:31.336Z,20.6
2019-01-23T10:19:21.424Z,20.8
2019-01-23T10:20:10.625Z,20.9
2019-01-23T10:21:51.924Z,21.3
2019-01-23T10:22:41.889Z,21.4
2019-01-23T10:23:30.916Z,21.6
2019-01-23T10:24:21.500Z,21.7
2019-01-23T10:25:11.281Z,21.8
2019-01-23T10:26:01.040Z,21.9
2019-01-23T10:26:51.996Z,21.4
2019-01-23T10:27:42.281Z,20.9
2019-01-23T10:28:33.069Z,20.4
2019-01-23T10:29:21.641Z,20.1
2019-01-23T10:30:12.202Z,19.9
2019-01-23T10:31:08.510Z,19.7
2019-01-23T10:31:52.019Z,19.4
2019-01-23T10:32:42.304Z,19.4
2019-01-23T10:33:32.716Z,19.2
2019-01-23T10:34:22.224Z,19.1
2019-01-23T10:35:12.772Z,19
2019-01-23T10:36:03.114Z,18.9
2019-01-23T10:36:52.884Z,18.8
2019-01-23T10:37:42.111Z,18.6
2019-01-23T10:39:22.485Z,19.3
2019-01-23T10:40:12.864Z,19.7
2019-01-23T10:41:02.898Z,20
2019-01-23T10:41:52.127Z,20.3
2019-01-23T10:42:42.975Z,20.6
2019-01-23T10:43:31.729Z,20.8
2019-01-23T10:44:23.403Z,20.9
2019-01-23T10:45:12.885Z,21.2
2019-01-23T10:46:03.870Z,21.3
2019-01-23T10:46:53.255Z,21.4
2019-01-23T10:47:43.063Z,21.6
2019-01-23T10:48:40.350Z,21.7
2019-01-23T10:49:22.960Z,21.8
2019-01-23T10:50:13.237Z,21.9
2019-01-23T10:51:04.151Z,21.4
2019-01-23T10:51:53.652Z,20.9
2019-01-23T10:52:43.107Z,20.5
2019-01-23T10:53:33.714Z,20.2
2019-01-23T10:54:24.445Z,19.9
2019-01-23T10:55:13.606Z,19.7
2019-01-23T10:56:04.210Z,19.5
2019-01-23T10:56:53.986Z,19.4
2019-01-23T10:57:44.587Z,19.3
2019-01-23T10:58:33.319Z,19.1
2019-01-23T10:59:24.957Z,19.1
2019-01-23T11:00:14.464Z,18.9
2019-01-23T11:01:05.102Z,18.9
2019-01-23T11:03:34.168Z,19.2
2019-01-23T11:04:25.157Z,19.6
2019-01-23T11:05:14.672Z,20
2019-01-23T11:06:04.598Z,20.3
2019-01-23T11:06:54.116Z,20.6
2019-01-23T11:07:44.976Z,20.8
2019-01-23T11:08:34.734Z,20.9
2019-01-23T11:10:14.921Z,21.3
2019-01-23T11:11:05.569Z,21.4
2019-01-23T11:11:55.381Z,21.6
2019-01-23T11:12:44.559Z,21.7
2019-01-23T11:13:34.276Z,21.8
2019-01-23T11:14:24.937Z,21.9
2019-01-23T11:15:15.311Z,21.6
2019-01-23T11:16:06.571Z,21.1
2019-01-23T11:16:55.343Z,20.6
2019-01-23T11:17:45.739Z,20.3
2019-01-23T11:18:35.500Z,20
2019-01-23T11:19:26.518Z,19.8
2019-01-23T11:20:16.131Z,19.6
2019-01-23T11:21:05.928Z,19.4
2019-01-23T11:21:56.040Z,19.3
2019-01-23T11:22:46.358Z,19.2
2019-01-23T11:23:35.853Z,19.1
2019-01-23T11:24:25.923Z,19
2019-01-23T11:25:15.716Z,18.9
2019-01-23T11:27:45.350Z,19.3
2019-01-23T11:28:35.660Z,19.7
2019-01-23T11:29:26.190Z,20.1
2019-01-23T11:30:16.595Z,20.3
2019-01-23T11:31:06.440Z,20.6
2019-01-23T11:31:56.932Z,20.8
2019-01-23T11:32:46.185Z,21
2019-01-23T11:33:36.527Z,21.2
2019-01-23T11:34:26.850Z,21.3
2019-01-23T11:35:17.257Z,21.4
2019-01-23T11:36:06.642Z,21.6
2019-01-23T11:36:56.164Z,21.7
2019-01-23T11:37:47.109Z,21.8
2019-01-23T11:38:37.144Z,21.9
2019-01-23T11:39:27.917Z,21.8
2019-01-23T11:40:16.679Z,21.2
2019-01-23T11:41:07.018Z,20.7
2019-01-23T11:41:56.519Z,20.4
2019-01-23T11:42:46.576Z,20.1
2019-01-23T11:43:37.455Z,19.9
2019-01-23T11:44:27.524Z,19.6